createdAt,value
2019-01-11T00:01:51.747Z,100893.27
2019-01-11T00:04:22.879Z,100891.55
2019-01-11T00:06:53.886Z,100885.06
2019-01-11T00:09:25.189Z,100893.11
2019-01-11T00:11:55.991Z,100889.33
2019-01-11T00:14:27.113Z,100895.61
2019-01-11T00:16:57.969Z,100898.98
2019-01-11T00:19:28.890Z,100892.09
2019-01-11T00:22:00.013Z,100898.75
2019-01-11T00:24:31.115Z,100890.44
2019-01-11T00:27:02.155Z,100893.91
2019-01-11T00:29:33.171Z,100896.52
2019-01-11T00:32:04.362Z,100898.17
2019-01-11T00:34:35.473Z,100891.78
2019-01-11T00:37:06.450Z,100893.16
2019-01-11T00:39:37.324Z,100889.80
2019-01-11T00:42:08.207Z,100895.77
2019-01-11T00:44:39.000Z,100889.97
2019-01-11T00:47:10.514Z,100885.38
2019-01-11T00:49:41.384Z,100886.71
2019-01-11T00:52:12.269Z,100883.38
2019-01-11T00:54:43.296Z,100889.39
2019-01-11T00:57:14.178Z,100886.03
2019-01-11T00:59:45.367Z,100883.16
2019-01-11T01:02:16.484Z,100873.46
2019-01-11T01:04:47.907Z,100876.55
2019-01-11T01:07:19.095Z,100885.05
2019-01-11T01:09:49.960Z,100884.25
2019-01-11T01:12:20.842Z,100890.27
2019-01-11T01:14:51.702Z,100891.06
2019-01-11T01:17:22.600Z,100896.31
2019-01-11T01:19:53.445Z,100894.76
2019-01-11T01:22:24.333Z,100885.77
2019-01-11T01:24:55.426Z,100888.41
2019-01-11T01:27:26.589Z,100884.11
2019-01-11T01:29:57.370Z,100882.45
2019-01-11T01:32:28.485Z,100883.30
2019-01-11T01:34:59.430Z,100887.56
2019-01-11T01:37:30.458Z,100881.18
2019-01-11T01:40:01.336Z,100887.61
2019-01-11T01:42:32.507Z,100892.68
2019-01-11T01:45:03.361Z,100896.08
2019-01-11T01:47:34.135Z,100891.98
2019-01-11T01:50:06.152Z,100892.36
2019-01-11T01:52:37.067Z,100901.63
2019-01-11T01:55:08.543Z,100909.26
2019-01-11T01:57:39.616Z,100907.05
2019-01-11T02:00:13.905Z,100905.30
2019-01-11T02:02:44.828Z,100903.17
2019-01-11T02:05:15.998Z,100889.90
2019-01-11T02:07:47.158Z,100886.86
2019-01-11T02:10:18.092Z,100880.16
2019-01-11T02:12:49.428Z,100884.91
2019-01-11T02:15:20.437Z,100880.69
2019-01-11T02:17:51.522Z,100881.98
2019-01-11T02:20:22.312Z,100883.25
2019-01-11T02:22:53.507Z,100881.97
2019-01-11T02:25:24.368Z,100880.22
2019-01-11T02:27:55.356Z,100875.95
2019-01-11T02:30:26.301Z,100869.55
2019-01-11T02:32:57.060Z,100878.09
2019-01-11T02:35:27.852Z,100874.19
2019-01-11T02:37:58.683Z,100875.05
2019-01-11T02:40:29.778Z,100870.80
2019-01-11T02:43:00.544Z,100867.37
2019-01-11T02:45:31.625Z,100871.58
2019-01-11T02:48:02.612Z,100873.70
2019-01-11T02:50:33.704Z,100870.30
2019-01-11T02:53:05.433Z,100869.88
2019-01-11T02:55:36.275Z,100858.41
2019-01-11T02:58:07.530Z,100862.20
2019-01-11T03:00:38.318Z,100857.92
2019-01-11T03:03:09.391Z,100856.70
2019-01-11T03:05:40.476Z,100856.23
2019-01-11T03:08:11.529Z,100861.23
2019-01-11T03:10:42.802Z,100859.58
2019-01-11T03:13:13.562Z,100867.27
2019-01-11T03:15:44.633Z,100857.03
2019-01-11T03:18:15.953Z,100860.31
2019-01-11T03:20:48.039Z,100861.91
2019-01-11T03:23:19.297Z,100858.02
2019-01-11T03:25:50.315Z,100854.72
2019-01-11T03:28:22.263Z,100850.56
2019-01-11T03:30:58.071Z,100855.14
2019-01-11T03:33:29.328Z,100856.00
2019-01-11T03:36:00.330Z,100854.22
2019-01-11T03:38:31.388Z,100852.47
2019-01-11T03:41:02.574Z,100857.47
2019-01-11T03:43:33.755Z,100858.38
2019-01-11T03:46:04.924Z,100855.62
2019-01-11T03:48:36.001Z,100864.16
2019-01-11T03:51:07.082Z,100856.91
2019-01-11T03:53:37.856Z,100860.80
2019-01-11T03:56:09.037Z,100858.98
2019-01-11T03:58:40.022Z,100853.06
2019-01-11T04:01:11.117Z,100856.06
2019-01-11T04:03:41.879Z,100861.61
2019-01-11T04:06:13.016Z,100861.09
2019-01-11T04:08:43.778Z,100853.80
2019-01-11T04:11:14.530Z,100850.80
2019-01-11T04:13:45.531Z,100853.42
2019-01-11T04:16:16.695Z,100852.88
2019-01-11T04:18:57.861Z,100849.91
2019-01-11T04:21:28.856Z,100848.06
2019-01-11T04:23:59.878Z,100850.97
2019-01-11T04:26:31.058Z,100848.73
2019-01-11T04:29:02.061Z,100853.73
2019-01-11T04:31:32.825Z,100861.48
2019-01-11T04:34:03.614Z,100865.86
2019-01-11T04:36:34.688Z,100867.58
2019-01-11T04:39:07.671Z,100863.80
2019-01-11T04:41:38.652Z,100866.41
2019-01-11T04:44:09.774Z,100870.14
2019-01-11T04:46:40.535Z,100865.08
2019-01-11T04:49:11.634Z,100856.91
2019-01-11T04:51:42.471Z,100857.27
2019-01-11T04:54:13.255Z,100862.52
2019-01-11T04:56:44.007Z,100862.58
2019-01-11T04:59:14.788Z,100862.52
2019-01-11T05:01:45.622Z,100855.14
2019-01-11T05:04:17.060Z,100858.92
2019-01-11T05:06:48.057Z,100859.11
2019-01-11T05:09:19.072Z,100855.27
2019-01-11T05:11:50.060Z,100852.64
2019-01-11T05:14:21.068Z,100849.17
2019-01-11T05:16:51.894Z,100847.88
2019-01-11T05:19:22.742Z,100847.47
2019-01-11T05:21:53.537Z,100850.86
2019-01-11T05:24:24.328Z,100855.56
2019-01-11T05:26:55.464Z,100849.66
2019-01-11T05:29:27.688Z,100853.06
2019-01-11T05:31:58.641Z,100847.88
2019-01-11T05:34:29.536Z,100850.38
2019-01-11T05:37:00.538Z,100853.75
2019-01-11T05:39:31.340Z,100850.80
2019-01-11T05:42:02.188Z,100850.80
2019-01-11T05:44:33.424Z,100844.36
2019-01-11T05:47:04.490Z,100849.58
2019-01-11T05:49:35.292Z,100842.83
2019-01-11T05:52:06.056Z,100848.30
2019-01-11T05:54:37.095Z,100843.63
2019-01-11T05:57:07.868Z,100835.94
2019-01-11T05:59:38.664Z,100841.97
2019-01-11T06:02:09.426Z,100835.59
2019-01-11T06:04:43.952Z,100832.66
2019-01-11T06:07:30.213Z,100825.27
2019-01-11T06:10:01.337Z,100833.27
2019-01-11T06:12:32.122Z,100829.84
2019-01-11T06:15:03.209Z,100833.33
2019-01-11T06:17:33.990Z,100832.48
2019-01-11T06:20:07.208Z,100828.34
2019-01-11T06:22:38.217Z,100827.98
2019-01-11T06:25:09.412Z,100831.73
2019-01-11T06:27:40.190Z,100830.71
2019-01-11T06:30:12.998Z,100837.71
2019-01-11T06:32:43.942Z,100841.05
2019-01-11T06:35:15.017Z,100832.83
2019-01-11T06:37:46.103Z,100837.46
2019-01-11T06:40:16.939Z,100836.49
2019-01-11T06:42:47.794Z,100838.73
2019-01-11T06:45:18.568Z,100836.25
2019-01-11T06:47:50.764Z,100835.62
2019-01-11T06:50:21.765Z,100832.66
2019-01-11T06:52:52.788Z,100839.11
2019-01-11T06:55:23.775Z,100837.34
2019-01-11T06:57:54.796Z,100843.42
2019-01-11T07:00:25.559Z,100838.99
2019-01-11T07:02:56.340Z,100839.78
2019-01-11T07:05:27.708Z,100837.23
2019-01-11T07:07:58.505Z,100832.83
2019-01-11T07:10:29.580Z,100835.95
2019-01-11T07:13:01.073Z,100831.61
2019-01-11T07:15:32.172Z,100833.61
2019-01-11T07:18:04.366Z,100832.41
2019-01-11T07:20:35.425Z,100830.71
2019-01-11T07:23:06.504Z,100830.54
2019-01-11T07:25:37.832Z,100831.31
2019-01-11T07:28:13.647Z,100832.47
2019-01-11T07:30:58.925Z,100829.62
2019-01-11T07:33:31.001Z,100819.43
2019-01-11T07:36:17.039Z,100821.52
2019-01-11T07:38:48.493Z,100824.63
2019-01-11T07:41:19.259Z,100822.98
2019-01-11T07:43:52.963Z,100834.29
2019-01-11T07:46:24.019Z,100829.62
2019-01-11T07:48:54.836Z,100831.25
2019-01-11T07:51:25.700Z,100825.72
2019-01-11T07:53:56.818Z,100825.72
2019-01-11T07:56:27.645Z,100822.22
2019-01-11T07:58:58.972Z,100826.56
2019-01-11T08:01:31.877Z,100819.80
2019-01-11T08:04:02.934Z,100821.45
2019-01-11T08:06:34.027Z,100825.09
2019-01-11T08:09:07.664Z,100831.87
2019-01-11T08:11:38.535Z,100836.08
2019-01-11T08:14:10.066Z,100832.61
2019-01-11T08:16:40.898Z,100840.22
2019-01-11T08:19:11.755Z,100838.63
2019-01-11T08:21:42.817Z,100838.32
2019-01-11T08:24:13.597Z,100843.39
2019-01-11T08:26:44.661Z,100841.73
2019-01-11T08:29:15.508Z,100846.48
2019-01-11T08:31:46.347Z,100841.25
2019-01-11T08:34:17.195Z,100838.81
2019-01-11T08:36:47.972Z,100846.56
2019-01-11T08:39:18.749Z,100826.52
2019-01-11T08:41:49.520Z,100826.63
2019-01-11T08:44:20.401Z,100828.75
2019-01-11T08:46:52.378Z,100826.98
2019-01-11T08:49:23.522Z,100831.55
2019-01-11T08:51:54.521Z,100831.14
2019-01-11T08:54:25.811Z,100824.20
2019-01-11T08:56:56.920Z,100826.20
2019-01-11T08:59:27.927Z,100818.70
2019-01-11T09:01:58.907Z,100817.12
2019-01-11T09:04:29.977Z,100818.45
2019-01-11T09:07:01.015Z,100818.62
2019-01-11T09:09:31.795Z,100821.67
2019-01-11T09:12:02.707Z,100824.30
2019-01-11T09:14:51.447Z,100827.29
2019-01-11T09:17:22.346Z,100816.69
2019-01-11T09:19:53.249Z,100815.61
2019-01-11T09:22:24.022Z,100818.75
2019-01-11T09:24:55.536Z,100820.83
2019-01-11T09:27:26.305Z,100824.73
2019-01-11T09:29:58.053Z,100821.69
2019-01-11T09:32:29.133Z,100826.31
2019-01-11T09:35:00.199Z,100825.02
2019-01-11T09:37:31.137Z,100816.84
2019-01-11T09:40:01.998Z,100820.41
2019-01-11T09:42:32.763Z,100819.13
2019-01-11T09:45:04.000Z,100822.05
2019-01-11T09:47:34.765Z,100823.48
2019-01-11T09:50:06.336Z,100819.20
2019-01-11T09:52:37.223Z,100819.64
2019-01-11T09:55:17.330Z,100827.04
2019-01-11T09:57:50.787Z,100816.92
2019-01-11T10:00:24.416Z,100816.84
2019-01-11T10:02:58.775Z,100809.88
2019-01-11T10:05:29.562Z,100811.58
2019-01-11T10:08:00.571Z,100814.78
2019-01-11T10:10:31.869Z,100807.89
2019-01-11T10:13:03.331Z,100810.14
2019-01-11T10:15:34.758Z,100807.02
2019-01-11T10:18:06.091Z,100806.41
2019-01-11T10:20:37.105Z,100807.12
2019-01-11T10:23:08.121Z,100798.98
2019-01-11T10:25:39.176Z,100794.67
2019-01-11T10:28:10.437Z,100793.95
2019-01-11T10:30:41.428Z,100793.89
2019-01-11T10:33:12.513Z,100799.64
2019-01-11T10:35:43.533Z,100788.64
2019-01-11T10:38:14.365Z,100786.02
2019-01-11T10:40:45.453Z,100785.77
2019-01-11T10:43:16.512Z,100794.72
2019-01-11T10:45:47.542Z,100787.91
2019-01-11T10:48:18.768Z,100793.89
2019-01-11T10:50:50.017Z,100803.83
2019-01-11T10:53:20.775Z,100795.36
2019-01-11T10:55:51.792Z,100793.09
2019-01-11T10:58:22.965Z,100794.17
2019-01-11T11:00:54.100Z,100783.52
2019-01-11T11:03:24.865Z,100786.21
2019-01-11T11:05:55.650Z,100784.00
2019-01-11T11:08:27.954Z,100785.84
2019-01-11T11:10:59.201Z,100781.77
2019-01-11T11:13:30.439Z,100790.24
2019-01-11T11:16:01.592Z,100786.39
2019-01-11T11:18:32.711Z,100772.13
2019-01-11T11:21:03.487Z,100765.38
2019-01-11T11:23:34.248Z,100764.00
2019-01-11T11:26:05.510Z,100764.50
2019-01-11T11:28:36.341Z,100758.03
2019-01-11T11:31:08.018Z,100757.47
2019-01-11T11:33:39.325Z,100753.94
2019-01-11T11:36:10.405Z,100746.00
2019-01-11T11:38:41.321Z,100742.81
2019-01-11T11:41:12.668Z,100738.56
2019-01-11T11:43:43.537Z,100744.55
2019-01-11T11:46:14.385Z,100753.56
2019-01-11T11:48:45.157Z,100749.84
2019-01-11T11:51:15.924Z,100753.61
2019-01-11T11:53:46.765Z,100745.37
2019-01-11T11:56:17.771Z,100749.02
2019-01-11T11:58:48.528Z,100739.64
2019-01-11T12:01:19.632Z,100729.95
2019-01-11T12:03:50.961Z,100722.91
2019-01-11T12:06:21.907Z,100724.14
2019-01-11T12:08:52.672Z,100709.61
2019-01-11T12:11:23.683Z,100708.20
2019-01-11T12:13:54.918Z,100708.64
2019-01-11T12:16:25.990Z,100714.75
2019-01-11T12:18:56.751Z,100712.82
2019-01-11T12:21:27.618Z,100714.38
2019-01-11T12:23:58.459Z,100710.49
2019-01-11T12:26:29.315Z,100709.77
2019-01-11T12:29:00.349Z,100706.20
2019-01-11T12:31:31.641Z,100703.21
2019-01-11T12:34:02.889Z,100701.53
2019-01-11T12:36:33.798Z,100703.59
2019-01-11T12:39:07.592Z,100694.62
2019-01-11T12:41:38.671Z,100697.63
2019-01-11T12:44:09.442Z,100693.56
2019-01-11T12:46:40.323Z,100681.42
2019-01-11T12:49:11.162Z,100687.15
2019-01-11T12:51:42.335Z,100683.17
2019-01-11T12:54:13.404Z,100686.53
2019-01-11T12:56:44.407Z,100682.33
2019-01-11T12:59:15.236Z,100676.22
2019-01-11T13:01:46.291Z,100672.50
2019-01-11T13:04:17.074Z,100667.27
2019-01-11T13:06:48.107Z,100668.34
2019-01-11T13:09:19.098Z,100674.59
2019-01-11T13:11:50.107Z,100674.00
2019-01-11T13:14:21.313Z,100677.50
2019-01-11T13:16:52.654Z,100681.55
2019-01-11T13:19:23.692Z,100677.23
2019-01-11T13:22:00.406Z,100669.55
2019-01-11T13:24:27.564Z,100665.33
2019-01-11T13:26:58.832Z,100665.78
2019-01-11T13:29:29.875Z,100660.57
2019-01-11T13:32:00.882Z,100653.33
2019-01-11T13:34:32.853Z,100663.64
2019-01-11T13:37:03.931Z,100661.49
2019-01-11T13:39:34.732Z,100664.36
2019-01-11T13:42:05.745Z,100666.61
2019-01-11T13:44:38.191Z,100660.91
2019-01-11T13:47:09.308Z,100663.50
2019-01-11T13:49:40.148Z,100662.70
2019-01-11T13:52:11.013Z,100660.02
2019-01-11T13:54:42.061Z,100664.69
2019-01-11T13:57:12.832Z,100667.67
2019-01-11T13:59:43.698Z,100665.12
2019-01-11T14:02:15.014Z,100668.55
2019-01-11T14:04:46.156Z,100671.93
2019-01-11T14:07:17.559Z,100674.78
2019-01-11T14:09:48.634Z,100671.37
2019-01-11T14:12:20.280Z,100666.05
2019-01-11T14:14:51.900Z,100671.24
2019-01-11T14:17:23.037Z,100669.03
2019-01-11T14:20:00.034Z,100671.16
2019-01-11T14:22:31.338Z,100681.89
2019-01-11T14:25:02.468Z,100672.54
2019-01-11T14:27:33.266Z,100672.52
2019-01-11T14:30:04.873Z,100675.80
2019-01-11T14:32:35.812Z,100679.19
2019-01-11T14:35:07.796Z,100679.86
2019-01-11T14:37:39.044Z,100678.48
2019-01-11T14:40:12.091Z,100678.48
2019-01-11T14:42:43.987Z,100690.09
2019-01-11T14:45:16.146Z,100689.74
2019-01-11T14:47:47.327Z,100688.88
2019-01-11T14:50:19.117Z,100682.39
2019-01-11T14:52:50.517Z,100685.88
2019-01-11T14:55:21.436Z,100686.25
2019-01-11T14:57:52.415Z,100678.14
2019-01-11T15:00:24.247Z,100679.86
2019-01-11T15:02:55.256Z,100673.89
2019-01-11T15:05:26.092Z,100677.30
2019-01-11T15:07:57.273Z,100674.78
2019-01-11T15:10:28.036Z,100680.78
2019-01-11T15:12:58.948Z,100673.25
2019-01-11T15:15:29.758Z,100675.63
2019-01-11T15:18:00.865Z,100675.50
2019-01-11T15:20:31.898Z,100667.47
2019-01-11T15:23:02.684Z,100667.33
2019-01-11T15:25:34.109Z,100664.05
2019-01-11T15:28:05.323Z,100664.84
2019-01-11T15:30:36.251Z,100673.25
2019-01-11T15:33:07.390Z,100670.45
2019-01-11T15:35:38.235Z,100665.40
2019-01-11T15:38:09.514Z,100666.19
2019-01-11T15:40:40.296Z,100665.33
2019-01-11T15:43:11.156Z,100667.89
2019-01-11T15:45:42.146Z,100666.27
2019-01-11T15:48:17.562Z,100661.94
2019-01-11T15:50:57.177Z,100660.28
2019-01-11T15:53:35.373Z,100658.86
2019-01-11T15:56:08.673Z,100656.03
2019-01-11T15:58:39.710Z,100661.94
2019-01-11T16:01:10.559Z,100660.20
2019-01-11T16:03:41.337Z,100667.89
2019-01-11T16:06:38.777Z,100663.29
2019-01-11T16:10:16.043Z,100665.28
2019-01-11T16:13:17.637Z,100653.54
2019-01-11T16:16:44.863Z,100653.40
2019-01-11T16:19:15.650Z,100656.73
2019-01-11T16:21:46.504Z,100651.63
2019-01-11T16:24:17.371Z,100654.67
2019-01-11T16:26:48.138Z,100663.56
2019-01-11T16:29:18.923Z,100655.33
2019-01-11T16:31:49.766Z,100650.22
2019-01-11T16:34:20.564Z,100649.00
2019-01-11T16:36:51.562Z,100648.21
2019-01-11T16:39:22.845Z,100646.86
2019-01-11T16:41:53.612Z,100647.27
2019-01-11T16:44:24.418Z,100644.30
2019-01-11T16:46:55.186Z,100644.37
2019-01-11T16:49:26.269Z,100651.91
2019-01-11T16:51:57.130Z,100654.97
2019-01-11T16:54:28.491Z,100649.34
2019-01-11T16:56:59.506Z,100647.61
2019-01-11T16:59:31.092Z,100650.10
2019-01-11T17:02:03.081Z,100643.29
2019-01-11T17:04:34.221Z,100643.70
2019-01-11T17:07:05.378Z,100646.72
2019-01-11T17:09:36.380Z,100646.72
2019-01-11T17:12:07.148Z,100652.27
2019-01-11T17:14:37.947Z,100645.44
2019-01-11T17:17:08.872Z,100637.76
2019-01-11T17:19:39.811Z,100642.95
2019-01-11T17:22:10.581Z,100650.55
2019-01-11T17:24:41.658Z,100656.57
2019-01-11T17:27:12.566Z,100659.06
2019-01-11T17:29:47.068Z,100656.02
2019-01-11T17:32:15.881Z,100649.25
2019-01-11T17:34:46.624Z,100645.94
2019-01-11T17:37:17.395Z,100651.98
2019-01-11T17:39:48.480Z,100658.16
2019-01-11T17:42:21.749Z,100653.53
2019-01-11T17:44:52.612Z,100654.47
2019-01-11T17:47:23.629Z,100652.17
2019-01-11T17:50:00.938Z,100657.52
2019-01-11T17:52:27.731Z,100660.06
2019-01-11T17:54:58.628Z,100665.05
2019-01-11T17:57:29.413Z,100657.02
2019-01-11T18:00:00.263Z,100663.35
2019-01-11T18:02:31.033Z,100661.56
2019-01-11T18:05:01.959Z,100666.73
2019-01-11T18:07:32.877Z,100669.66
2019-01-11T18:10:04.304Z,100668.02
2019-01-11T18:12:35.269Z,100669.82
2019-01-11T18:15:09.525Z,100668.11
2019-01-11T18:17:40.363Z,100668.55
2019-01-11T18:20:14.594Z,100666.54
2019-01-11T18:22:46.097Z,100662.12
2019-01-11T18:25:17.262Z,100659.86
2019-01-11T18:27:48.422Z,100653.89
2019-01-11T18:30:19.572Z,100649.69
2019-01-11T18:32:50.893Z,100657.37
2019-01-11T18:35:22.040Z,100657.30
2019-01-11T18:37:52.953Z,100662.41
2019-01-11T18:40:25.243Z,100648.83
2019-01-11T18:42:56.356Z,100654.37
2019-01-11T18:45:28.805Z,100656.42
2019-01-11T18:47:59.600Z,100653.19
2019-01-11T18:50:30.614Z,100650.39
2019-01-11T18:53:01.384Z,100649.69
2019-01-11T18:55:32.413Z,100652.52
2019-01-11T18:58:03.593Z,100652.17
2019-01-11T19:00:34.441Z,100649.95
2019-01-11T19:03:05.522Z,100656.21
2019-01-11T19:05:36.556Z,100654.59
2019-01-11T19:08:07.436Z,100659.64
2019-01-11T19:10:39.702Z,100652.45
2019-01-11T19:13:10.706Z,100659.05
2019-01-11T19:15:41.824Z,100655.44
2019-01-11T19:18:12.741Z,100660.39
2019-01-11T19:20:43.611Z,100657.78
2019-01-11T19:23:20.380Z,100650.17
2019-01-11T19:25:47.203Z,100659.88
2019-01-11T19:28:18.226Z,100651.28
2019-01-11T19:30:49.010Z,100655.53
2019-01-11T19:33:19.803Z,100651.20
2019-01-11T19:35:50.670Z,100649.17
2019-01-11T19:38:22.387Z,100649.84
2019-01-11T19:40:53.573Z,100658.79
2019-01-11T19:43:24.345Z,100659.41
2019-01-11T19:45:55.208Z,100652.34
2019-01-11T19:48:26.068Z,100650.79
2019-01-11T19:50:56.877Z,100654.37
2019-01-11T19:53:27.912Z,100651.73
2019-01-11T19:55:59.585Z,100649.59
2019-01-11T19:58:33.257Z,100661.95
2019-01-11T20:01:04.283Z,100653.84
2019-01-11T20:03:35.214Z,100653.25
2019-01-11T20:06:06.152Z,100654.82
2019-01-11T20:08:37.504Z,100646.87
2019-01-11T20:11:08.939Z,100654.10
2019-01-11T20:13:39.928Z,100660.09
2019-01-11T20:16:10.841Z,100653.16
2019-01-11T20:18:41.886Z,100653.11
2019-01-11T20:21:12.988Z,100664.72
2019-01-11T20:23:43.837Z,100658.38
2019-01-11T20:26:14.921Z,100654.44
2019-01-11T20:28:45.838Z,100657.30
2019-01-11T20:31:16.698Z,100653.80
2019-01-11T20:33:47.790Z,100655.56
2019-01-11T20:36:18.659Z,100665.32
2019-01-11T20:38:49.658Z,100660.13
2019-01-11T20:41:20.696Z,100672.16
2019-01-11T20:43:52.180Z,100664.91
2019-01-11T20:46:23.217Z,100660.61
2019-01-11T20:48:54.063Z,100665.34
2019-01-11T20:51:24.855Z,100665.58
2019-01-11T20:53:55.846Z,100662.33
2019-01-11T20:56:26.868Z,100659.12
2019-01-11T20:58:57.872Z,100658.51
2019-01-11T21:01:29.345Z,100657.92
2019-01-11T21:04:00.669Z,100659.61
2019-01-11T21:06:31.821Z,100660.13
2019-01-11T21:09:02.918Z,100658.77
2019-01-11T21:11:35.645Z,100663.55
2019-01-11T21:14:06.674Z,100657.28
2019-01-11T21:16:37.517Z,100656.36
2019-01-11T21:19:08.859Z,100662.33
2019-01-11T21:21:40.205Z,100661.77
2019-01-11T21:24:11.065Z,100655.48
2019-01-11T21:26:42.175Z,100654.47
2019-01-11T21:29:13.197Z,100647.57
2019-01-11T21:31:44.066Z,100656.81
2019-01-11T21:34:14.835Z,100655.97
2019-01-11T21:36:45.852Z,100657.89
2019-01-11T21:39:17.176Z,100656.20
2019-01-11T21:41:48.031Z,100656.05
2019-01-11T21:44:19.587Z,100659.52
2019-01-11T21:46:50.865Z,100658.51
2019-01-11T21:49:21.725Z,100662.09
2019-01-11T21:51:52.808Z,100659.38
2019-01-11T21:54:23.816Z,100664.06
2019-01-11T21:56:54.749Z,100662.78
2019-01-11T21:59:25.610Z,100667.88
2019-01-11T22:01:56.545Z,100666.47
2019-01-11T22:04:27.349Z,100674.16
2019-01-11T22:06:58.146Z,100672.26
2019-01-11T22:09:29.713Z,100668.08
2019-01-11T22:12:00.726Z,100666.47
2019-01-11T22:14:32.102Z,100666.78
2019-01-11T22:17:02.906Z,100670.02
2019-01-11T22:19:33.775Z,100668.95
2019-01-11T22:22:04.721Z,100668.88
2019-01-11T22:24:35.492Z,100666.39
2019-01-11T22:27:06.351Z,100660.55
2019-01-11T22:29:37.434Z,100657.67
2019-01-11T22:32:08.457Z,100653.83
2019-01-11T22:34:39.524Z,100666.64
2019-01-11T22:37:10.537Z,100665.77
2019-01-11T22:39:41.387Z,100665.77
2019-01-11T22:42:12.414Z,100666.56
2019-01-11T22:44:43.259Z,100671.52
2019-01-11T22:47:14.047Z,100660.59
2019-01-11T22:49:45.110Z,100660.48
2019-01-11T22:52:16.185Z,100672.08
2019-01-11T22:54:48.323Z,100679.30
2019-01-11T22:57:19.141Z,100681.40
2019-01-11T22:59:50.209Z,100678.50
2019-01-11T23:02:26.950Z,100674.77
2019-01-11T23:04:58.021Z,100669.53
2019-01-11T23:07:39.435Z,100674.41
2019-01-11T23:10:48.701Z,100676.38
2019-01-11T23:13:19.528Z,100665.17
2019-01-11T23:15:57.301Z,100666.40
2019-01-11T23:18:29.710Z,100667.76
2019-01-11T23:21:04.256Z,100672.09
2019-01-11T23:23:35.118Z,100670.48
2019-01-11T23:26:06.121Z,100669.28
2019-01-11T23:28:36.974Z,100667.38
2019-01-11T23:31:07.748Z,100666.62
2019-01-11T23:33:38.760Z,100666.89
2019-01-11T23:36:09.597Z,100670.73
2019-01-11T23:38:40.624Z,100672.02
2019-01-11T23:41:11.618Z,100667.38
2019-01-11T23:43:42.513Z,100670.20
2019-01-11T23:46:13.744Z,100677.39
2019-01-11T23:48:45.051Z,100671.31
2019-01-11T23:51:15.968Z,100672.89
2019-01-11T23:53:47.058Z,100670.41
2019-01-11T23:56:18.376Z,100666.86
2019-01-11T23:58:49.943Z,100671.42
